Brumley, Texas
Current Conditions -  °F | °C
As of 1:55 PM on Saturday 25 Oct 2014 (Local Time) from KOSA Reporting Station
Clear Clear  
Wind Chill: 83°   Ceiling: Unl
Heat Index: 84°   Visibility: 10mi
Dew Point: 60°   Wind: 8mph
Humidity: 46%   Direction: 230°SW
Pressure: 30.12"   Gusts: NA
Location:  32.9352°N, 94.9553°W
Report Text: KOSA 251855Z AUTO 23007KT 10SM CLR 29/16 A3012 RMK AO1 T02850158
Loading
Personal Weather Stations






























Interactive Weather Map
Tropical Storm Tracking
New forecast layout! Learn more

10-Day Weather Forecast

Advertisements
Track Severe Weather on mobile